sensor_id;sensor_type;location;lat;lon;timestamp;P1;durP1;ratioP1;P2;durP2;ratioP2
17866;SDS011;9059;49.934;8.650;2023-02-19T00:00:14;5.35;;;2.90;;
17866;SDS011;9059;49.934;8.650;2023-02-19T00:01:17;5.85;;;3.13;;
17866;SDS011;9059;49.934;8.650;2023-02-19T00:02:20;6.28;;;3.17;;
17866;SDS011;9059;49.934;8.650;2023-02-19T00:03:23;7.57;;;3.08;;
17866;SDS011;9059;49.934;8.650;2023-02-19T00:04:25;5.82;;;2.92;;
17866;SDS011;9059;49.934;8.650;2023-02-19T00:05:28;6.45;;;2.85;;
17866;SDS011;9059;49.934;8.650;2023-02-19T00:06:30;5.68;;;2.78;;
17866;SDS011;9059;49.934;8.650;2023-02-19T00:07:34;6.47;;;2.80;;
17866;SDS011;9059;49.934;8.650;2023-02-19T00:08:36;5.45;;;3.20;;
17866;SDS011;9059;49.934;8.650;2023-02-19T00:09:42;9.00;;;2.90;;
17866;SDS011;9059;49.934;8.650;2023-02-19T00:10:45;8.60;;;2.78;;
17866;SDS011;9059;49.934;8.650;2023-02-19T00:11:48;5.78;;;2.95;;
17866;SDS011;9059;49.934;8.650;2023-02-19T00:12:50;4.75;;;3.00;;
17866;SDS011;9059;49.934;8.650;2023-02-19T00:13:53;5.82;;;3.13;;
17866;SDS011;9059;49.934;8.650;2023-02-19T00:14:56;6.20;;;2.60;;
17866;SDS011;9059;49.934;8.650;2023-02-19T00:16:00;7.63;;;3.08;;
17866;SDS011;9059;49.934;8.650;2023-02-19T00:17:06;3.38;;;2.20;;
17866;SDS011;9059;49.934;8.650;2023-02-19T00:18:09;6.93;;;3.20;;
17866;SDS011;9059;49.934;8.650;2023-02-19T00:19:11;6.03;;;3.17;;
17866;SDS011;9059;49.934;8.650;2023-02-19T00:20:16;4.43;;;3.00;;
17866;SDS011;9059;49.934;8.650;2023-02-19T00:21:18;5.60;;;2.92;;
17866;SDS011;9059;49.934;8.650;2023-02-19T00:22:20;6.85;;;2.85;;
17866;SDS011;9059;49.934;8.650;2023-02-19T00:23:22;5.45;;;3.15;;
17866;SDS011;9059;49.934;8.650;2023-02-19T00:24:25;5.10;;;2.88;;
17866;SDS011;9059;49.934;8.650;2023-02-19T00:25:27;5.53;;;2.95;;
17866;SDS011;9059;49.934;8.650;2023-02-19T00:26:31;4.40;;;2.63;;
17866;SDS011;9059;49.934;8.650;2023-02-19T00:27:34;5.65;;;3.05;;
17866;SDS011;9059;49.934;8.650;2023-02-19T00:28:35;4.22;;;2.70;;
17866;SDS011;9059;49.934;8.650;2023-02-19T00:29:38;4.70;;;2.78;;
17866;SDS011;9059;49.934;8.650;2023-02-19T00:30:40;6.63;;;3.35;;
17866;SDS011;9059;49.934;8.650;2023-02-19T00:31:43;8.65;;;3.53;;
17866;SDS011;9059;49.934;8.650;2023-02-19T00:32:48;4.60;;;2.88;;
17866;SDS011;9059;49.934;8.650;2023-02-19T00:33:51;4.80;;;2.75;;
17866;SDS011;9059;49.934;8.650;2023-02-19T00:34:55;4.75;;;2.60;;
17866;SDS011;9059;49.934;8.650;2023-02-19T00:35:58;5.38;;;2.90;;
17866;SDS011;9059;49.934;8.650;2023-02-19T00:37:01;5.95;;;2.80;;
17866;SDS011;9059;49.934;8.650;2023-02-19T00:38:04;4.50;;;2.60;;
17866;SDS011;9059;49.934;8.650;2023-02-19T00:39:06;3.35;;;2.22;;
17866;SDS011;9059;49.934;8.650;2023-02-19T00:40:09;3.47;;;2.28;;
17866;SDS011;9059;49.934;8.650;2023-02-19T00:41:11;6.68;;;3.58;;
17866;SDS011;9059;49.934;8.650;2023-02-19T00:42:22;5.78;;;2.65;;
17866;SDS011;9059;49.934;8.650;2023-02-19T00:43:23;4.00;;;2.33;;
17866;SDS011;9059;49.934;8.650;2023-02-19T00:44:26;4.13;;;2.30;;
17866;SDS011;9059;49.934;8.650;2023-02-19T00:45:28;5.68;;;2.80;;
17866;SDS011;9059;49.934;8.650;2023-02-19T00:46:32;3.53;;;1.77;;
17866;SDS011;9059;49.934;8.650;2023-02-19T00:47:35;5.60;;;2.45;;
17866;SDS011;9059;49.934;8.650;2023-02-19T00:48:38;3.92;;;2.20;;
17866;SDS011;9059;49.934;8.650;2023-02-19T00:49:40;4.50;;;2.63;;
17866;SDS011;9059;49.934;8.650;2023-02-19T00:50:43;5.30;;;2.70;;
17866;SDS011;9059;49.934;8.650;2023-02-19T00:51:45;8.55;;;3.00;;
17866;SDS011;9059;49.934;8.650;2023-02-19T00:52:47;3.65;;;2.42;;
17866;SDS011;9059;49.934;8.650;2023-02-19T00:53:49;4.78;;;2.60;;
17866;SDS011;9059;49.934;8.650;2023-02-19T00:54:52;6.22;;;2.60;;
17866;SDS011;9059;49.934;8.650;2023-02-19T00:55:54;3.58;;;2.08;;
17866;SDS011;9059;49.934;8.650;2023-02-19T00:56:57;4.80;;;2.45;;
17866;SDS011;9059;49.934;8.650;2023-02-19T00:58:01;3.75;;;2.20;;
17866;SDS011;9059;49.934;8.650;2023-02-19T00:59:02;5.70;;;2.42;;
17866;SDS011;9059;49.934;8.650;2023-02-19T01:00:06;6.88;;;2.75;;
17866;SDS011;9059;49.934;8.650;2023-02-19T01:01:08;6.30;;;2.50;;
17866;SDS011;9059;49.934;8.650;2023-02-19T01:02:12;6.78;;;2.67;;
17866;SDS011;9059;49.934;8.650;2023-02-19T01:03:14;3.88;;;2.50;;
17866;SDS011;9059;49.934;8.650;2023-02-19T01:04:17;3.15;;;2.25;;
17866;SDS011;9059;49.934;8.650;2023-02-19T01:05:18;4.65;;;2.78;;
17866;SDS011;9059;49.934;8.650;2023-02-19T01:06:21;4.88;;;2.40;;
17866;SDS011;9059;49.934;8.650;2023-02-19T01:07:23;3.75;;;2.08;;
17866;SDS011;9059;49.934;8.650;2023-02-19T01:08:26;3.90;;;2.33;;
17866;SDS011;9059;49.934;8.650;2023-02-19T01:09:28;5.13;;;2.50;;
17866;SDS011;9059;49.934;8.650;2023-02-19T01:10:31;4.97;;;2.78;;
17866;SDS011;9059;49.934;8.650;2023-02-19T01:11:32;3.78;;;2.28;;
17866;SDS011;9059;49.934;8.650;2023-02-19T01:12:35;4.90;;;2.42;;
17866;SDS011;9059;49.934;8.650;2023-02-19T01:13:38;5.22;;;2.63;;
17866;SDS011;9059;49.934;8.650;2023-02-19T01:14:42;5.32;;;2.42;;
17866;SDS011;9059;49.934;8.650;2023-02-19T01:15:43;4.50;;;2.50;;
17866;SDS011;9059;49.934;8.650;2023-02-19T01:16:46;6.53;;;2.70;;
17866;SDS011;9059;49.934;8.650;2023-02-19T01:17:48;6.15;;;2.38;;
17866;SDS011;9059;49.934;8.650;2023-02-19T01:18:51;4.18;;;2.25;;
17866;SDS011;9059;49.934;8.650;2023-02-19T01:19:52;3.83;;;2.15;;
17866;SDS011;9059;49.934;8.650;2023-02-19T01:20:55;3.58;;;2.58;;
17866;SDS011;9059;49.934;8.650;2023-02-19T01:21:57;4.22;;;2.28;;
17866;SDS011;9059;49.934;8.650;2023-02-19T01:23:00;3.55;;;2.40;;
17866;SDS011;9059;49.934;8.650;2023-02-19T01:24:01;4.82;;;2.28;;
17866;SDS011;9059;49.934;8.650;2023-02-19T01:25:05;4.95;;;2.78;;
17866;SDS011;9059;49.934;8.650;2023-02-19T01:26:07;5.97;;;2.53;;
17866;SDS011;9059;49.934;8.650;2023-02-19T01:27:11;3.45;;;2.47;;
17866;SDS011;9059;49.934;8.650;2023-02-19T01:28:12;4.80;;;2.60;;
17866;SDS011;9059;49.934;8.650;2023-02-19T01:29:16;5.50;;;2.25;;
17866;SDS011;9059;49.934;8.650;2023-02-19T01:30:19;4.78;;;2.53;;
17866;SDS011;9059;49.934;8.650;2023-02-19T01:31:21;7.18;;;2.13;;
17866;SDS011;9059;49.934;8.650;2023-02-19T01:32:25;4.57;;;2.42;;
17866;SDS011;9059;49.934;8.650;2023-02-19T01:33:28;3.95;;;2.30;;
17866;SDS011;9059;49.934;8.650;2023-02-19T01:34:30;4.13;;;2.40;;
17866;SDS011;9059;49.934;8.650;2023-02-19T01:35:37;2.47;;;2.03;;
17866;SDS011;9059;49.934;8.650;2023-02-19T01:36:39;4.40;;;2.47;;
17866;SDS011;9059;49.934;8.650;2023-02-19T01:37:42;4.05;;;2.20;;
17866;SDS011;9059;49.934;8.650;2023-02-19T01:38:44;3.20;;;2.28;;
17866;SDS011;9059;49.934;8.650;2023-02-19T01:39:47;4.15;;;2.60;;
17866;SDS011;9059;49.934;8.650;2023-02-19T01:40:53;3.97;;;2.15;;
17866;SDS011;9059;49.934;8.650;2023-02-19T01:41:56;4.75;;;2.03;;
17866;SDS011;9059;49.934;8.650;2023-02-19T01:42:59;2.72;;;2.10;;
17866;SDS011;9059;49.934;8.650;2023-02-19T01:44:02;4.15;;;2.45;;
17866;SDS011;9059;49.934;8.650;2023-02-19T01:46:23;5.03;;;2.15;;
17866;SDS011;9059;49.934;8.650;2023-02-19T01:47:26;6.65;;;2.30;;
17866;SDS011;9059;49.934;8.650;2023-02-19T01:48:29;4.07;;;2.20;;
17866;SDS011;9059;49.934;8.650;2023-02-19T01:49:33;2.63;;;1.92;;
17866;SDS011;9059;49.934;8.650;2023-02-19T01:50:38;3.35;;;2.28;;
17866;SDS011;9059;49.934;8.650;2023-02-19T01:51:43;3.85;;;2.17;;
17866;SDS011;9059;49.934;8.650;2023-02-19T01:52:47;2.85;;;1.90;;
17866;SDS011;9059;49.934;8.650;2023-02-19T01:53:51;5.00;;;2.35;;
17866;SDS011;9059;49.934;8.650;2023-02-19T01:54:55;4.38;;;2.17;;
17866;SDS011;9059;49.934;8.650;2023-02-19T01:55:58;4.18;;;2.00;;
17866;SDS011;9059;49.934;8.650;2023-02-19T01:57:01;3.47;;;2.25;;
17866;SDS011;9059;49.934;8.650;2023-02-19T01:58:06;6.03;;;2.28;;
17866;SDS011;9059;49.934;8.650;2023-02-19T01:59:10;4.80;;;2.25;;
17866;SDS011;9059;49.934;8.650;2023-02-19T02:00:14;6.40;;;2.50;;
17866;SDS011;9059;49.934;8.650;2023-02-19T02:01:18;4.60;;;2.10;;
17866;SDS011;9059;49.934;8.650;2023-02-19T02:02:20;3.72;;;2.13;;
17866;SDS011;9059;49.934;8.650;2023-02-19T02:03:23;2.95;;;1.70;;
17866;SDS011;9059;49.934;8.650;2023-02-19T02:04:26;4.15;;;2.45;;
17866;SDS011;9059;49.934;8.650;2023-02-19T02:05:39;5.18;;;2.42;;
17866;SDS011;9059;49.934;8.650;2023-02-19T02:06:47;4.28;;;2.30;;
17866;SDS011;9059;49.934;8.650;2023-02-19T02:07:50;3.75;;;2.38;;
17866;SDS011;9059;49.934;8.650;2023-02-19T02:09:10;6.30;;;2.70;;
17866;SDS011;9059;49.934;8.650;2023-02-19T02:10:31;4.25;;;2.45;;
17866;SDS011;9059;49.934;8.650;2023-02-19T02:11:35;3.70;;;2.50;;
17866;SDS011;9059;49.934;8.650;2023-02-19T02:12:37;3.67;;;2.20;;
17866;SDS011;9059;49.934;8.650;2023-02-19T02:13:39;4.95;;;2.40;;
17866;SDS011;9059;49.934;8.650;2023-02-19T02:14:42;3.83;;;2.20;;
17866;SDS011;9059;49.934;8.650;2023-02-19T02:15:49;3.10;;;1.90;;
17866;SDS011;9059;49.934;8.650;2023-02-19T02:16:56;3.70;;;2.00;;
17866;SDS011;9059;49.934;8.650;2023-02-19T02:18:04;6.32;;;2.40;;
17866;SDS011;9059;49.934;8.650;2023-02-19T02:19:17;4.40;;;2.10;;
17866;SDS011;9059;49.934;8.650;2023-02-19T02:20:33;3.17;;;2.05;;
17866;SDS011;9059;49.934;8.650;2023-02-19T02:21:54;3.90;;;2.40;;
17866;SDS011;9059;49.934;8.650;2023-02-19T02:23:02;6.25;;;2.17;;
17866;SDS011;9059;49.934;8.650;2023-02-19T02:24:11;7.97;;;2.50;;
17866;SDS011;9059;49.934;8.650;2023-02-19T02:25:39;5.45;;;2.65;;
17866;SDS011;9059;49.934;8.650;2023-02-19T02:27:05;4.18;;;2.50;;
17866;SDS011;9059;49.934;8.650;2023-02-19T02:28:28;4.22;;;2.28;;
17866;SDS011;9059;49.934;8.650;2023-02-19T02:30:04;4.13;;;2.63;;
17866;SDS011;9059;49.934;8.650;2023-02-19T02:31:25;4.10;;;2.20;;
17866;SDS011;9059;49.934;8.650;2023-02-19T02:32:31;4.70;;;2.53;;
17866;SDS011;9059;49.934;8.650;2023-02-19T02:33:36;4.93;;;2.47;;
17866;SDS011;9059;49.934;8.650;2023-02-19T02:34:44;3.85;;;2.35;;
17866;SDS011;9059;49.934;8.650;2023-02-19T02:35:49;4.00;;;2.13;;
17866;SDS011;9059;49.934;8.650;2023-02-19T02:36:54;3.10;;;2.03;;
17866;SDS011;9059;49.934;8.650;2023-02-19T02:37:58;5.10;;;2.53;;
17866;SDS011;9059;49.934;8.650;2023-02-19T02:39:03;5.57;;;2.40;;
17866;SDS011;9059;49.934;8.650;2023-02-19T02:40:07;4.55;;;2.33;;
17866;SDS011;9059;49.934;8.650;2023-02-19T02:41:12;3.72;;;2.17;;
17866;SDS011;9059;49.934;8.650;2023-02-19T02:42:14;5.65;;;2.60;;
17866;SDS011;9059;49.934;8.650;2023-02-19T02:43:29;4.03;;;2.38;;
17866;SDS011;9059;49.934;8.650;2023-02-19T02:44:32;5.70;;;2.70;;
17866;SDS011;9059;49.934;8.650;2023-02-19T02:45:37;4.43;;;2.33;;
17866;SDS011;9059;49.934;8.650;2023-02-19T02:46:40;4.43;;;2.55;;
17866;SDS011;9059;49.934;8.650;2023-02-19T02:47:46;4.50;;;2.33;;
17866;SDS011;9059;49.934;8.650;2023-02-19T02:48:50;5.53;;;2.47;;
17866;SDS011;9059;49.934;8.650;2023-02-19T02:49:55;4.15;;;2.50;;
17866;SDS011;9059;49.934;8.650;2023-02-19T02:51:07;6.80;;;2.70;;
17866;SDS011;9059;49.934;8.650;2023-02-19T02:52:14;3.78;;;2.22;;
17866;SDS011;9059;49.934;8.650;2023-02-19T02:53:37;4.07;;;1.95;;
17866;SDS011;9059;49.934;8.650;2023-02-19T02:55:01;6.15;;;2.42;;
17866;SDS011;9059;49.934;8.650;2023-02-19T02:56:08;7.35;;;3.10;;
17866;SDS011;9059;49.934;8.650;2023-02-19T02:57:11;6.03;;;3.00;;
17866;SDS011;9059;49.934;8.650;2023-02-19T02:58:15;4.15;;;2.20;;
17866;SDS011;9059;49.934;8.650;2023-02-19T02:59:19;3.40;;;2.13;;
17866;SDS011;9059;49.934;8.650;2023-02-19T03:00:22;4.90;;;2.50;;
17866;SDS011;9059;49.934;8.650;2023-02-19T03:01:28;5.40;;;2.25;;
17866;SDS011;9059;49.934;8.650;2023-02-19T03:02:49;5.07;;;2.10;;
17866;SDS011;9059;49.934;8.650;2023-02-19T03:03:53;4.80;;;1.80;;
17866;SDS011;9059;49.934;8.650;2023-02-19T03:04:59;2.95;;;1.52;;
17866;SDS011;9059;49.934;8.650;2023-02-19T03:06:22;4.30;;;2.08;;
17866;SDS011;9059;49.934;8.650;2023-02-19T03:07:28;5.10;;;2.30;;
17866;SDS011;9059;49.934;8.650;2023-02-19T03:08:37;4.25;;;1.70;;
17866;SDS011;9059;49.934;8.650;2023-02-19T03:09:42;4.82;;;2.63;;
17866;SDS011;9059;49.934;8.650;2023-02-19T03:10:46;3.17;;;1.90;;
17866;SDS011;9059;49.934;8.650;2023-02-19T03:11:53;4.38;;;2.13;;
17866;SDS011;9059;49.934;8.650;2023-02-19T03:13:15;3.08;;;1.65;;
17866;SDS011;9059;49.934;8.650;2023-02-19T03:14:38;3.00;;;2.03;;
17866;SDS011;9059;49.934;8.650;2023-02-19T03:16:04;2.97;;;1.80;;
17866;SDS011;9059;49.934;8.650;2023-02-19T03:17:30;4.30;;;2.15;;
17866;SDS011;9059;49.934;8.650;2023-02-19T03:18:53;3.13;;;1.73;;
17866;SDS011;9059;49.934;8.650;2023-02-19T03:20:14;3.47;;;1.83;;
17866;SDS011;9059;49.934;8.650;2023-02-19T03:21:17;4.90;;;2.13;;
17866;SDS011;9059;49.934;8.650;2023-02-19T03:22:21;4.10;;;1.90;;
17866;SDS011;9059;49.934;8.650;2023-02-19T03:23:27;3.35;;;2.30;;
17866;SDS011;9059;49.934;8.650;2023-02-19T03:24:47;3.63;;;2.10;;
17866;SDS011;9059;49.934;8.650;2023-02-19T03:26:09;4.63;;;1.75;;
17866;SDS011;9059;49.934;8.650;2023-02-19T03:27:11;4.85;;;1.60;;
17866;SDS011;9059;49.934;8.650;2023-02-19T03:28:16;4.35;;;2.03;;
17866;SDS011;9059;49.934;8.650;2023-02-19T03:29:18;4.47;;;2.00;;
17866;SDS011;9059;49.934;8.650;2023-02-19T03:30:27;4.53;;;2.08;;
17866;SDS011;9059;49.934;8.650;2023-02-19T03:31:31;3.58;;;1.80;;
17866;SDS011;9059;49.934;8.650;2023-02-19T03:32:35;2.83;;;1.70;;
17866;SDS011;9059;49.934;8.650;2023-02-19T03:33:41;3.22;;;1.77;;
17866;SDS011;9059;49.934;8.650;2023-02-19T03:34:45;2.85;;;1.83;;
17866;SDS011;9059;49.934;8.650;2023-02-19T03:35:52;2.50;;;1.50;;
17866;SDS011;9059;49.934;8.650;2023-02-19T03:36:57;2.70;;;1.80;;
17866;SDS011;9059;49.934;8.650;2023-02-19T03:38:03;3.47;;;1.75;;
17866;SDS011;9059;49.934;8.650;2023-02-19T03:39:08;2.33;;;1.80;;
17866;SDS011;9059;49.934;8.650;2023-02-19T03:40:13;2.50;;;1.45;;
17866;SDS011;9059;49.934;8.650;2023-02-19T03:41:16;3.17;;;1.88;;
17866;SDS011;9059;49.934;8.650;2023-02-19T03:42:29;2.72;;;1.52;;
17866;SDS011;9059;49.934;8.650;2023-02-19T03:43:34;2.63;;;1.75;;
17866;SDS011;9059;49.934;8.650;2023-02-19T03:44:39;2.40;;;1.65;;
17866;SDS011;9059;49.934;8.650;2023-02-19T03:45:47;3.80;;;1.80;;
17866;SDS011;9059;49.934;8.650;2023-02-19T03:46:55;2.35;;;1.55;;
17866;SDS011;9059;49.934;8.650;2023-02-19T03:48:12;2.92;;;1.55;;
17866;SDS011;9059;49.934;8.650;2023-02-19T03:49:22;3.30;;;1.77;;
17866;SDS011;9059;49.934;8.650;2023-02-19T03:50:26;2.42;;;1.50;;
17866;SDS011;9059;49.934;8.650;2023-02-19T03:51:32;4.63;;;2.10;;
17866;SDS011;9059;49.934;8.650;2023-02-19T03:52:40;2.75;;;1.55;;
17866;SDS011;9059;49.934;8.650;2023-02-19T03:53:47;3.70;;;1.67;;
17866;SDS011;9059;49.934;8.650;2023-02-19T03:54:53;7.22;;;1.92;;
17866;SDS011;9059;49.934;8.650;2023-02-19T03:56:03;3.58;;;1.65;;
17866;SDS011;9059;49.934;8.650;2023-02-19T03:57:09;3.40;;;1.65;;
17866;SDS011;9059;49.934;8.650;2023-02-19T03:58:16;2.90;;;1.23;;
17866;SDS011;9059;49.934;8.650;2023-02-19T03:59:23;2.78;;;1.27;;
17866;SDS011;9059;49.934;8.650;2023-02-19T04:00:29;1.92;;;1.00;;
17866;SDS011;9059;49.934;8.650;2023-02-19T04:01:33;1.88;;;1.13;;
17866;SDS011;9059;49.934;8.650;2023-02-19T04:02:42;2.33;;;1.38;;
17866;SDS011;9059;49.934;8.650;2023-02-19T04:03:50;4.35;;;1.50;;
17866;SDS011;9059;49.934;8.650;2023-02-19T04:04:56;2.15;;;1.25;;
17866;SDS011;9059;49.934;8.650;2023-02-19T04:06:01;2.00;;;1.40;;
17866;SDS011;9059;49.934;8.650;2023-02-19T04:07:05;2.70;;;1.63;;
17866;SDS011;9059;49.934;8.650;2023-02-19T04:08:08;4.60;;;1.60;;
17866;SDS011;9059;49.934;8.650;2023-02-19T04:09:13;3.17;;;1.40;;
17866;SDS011;9059;49.934;8.650;2023-02-19T04:10:16;1.75;;;1.38;;
17866;SDS011;9059;49.934;8.650;2023-02-19T04:11:19;2.65;;;1.70;;
17866;SDS011;9059;49.934;8.650;2023-02-19T04:12:22;4.50;;;1.50;;
17866;SDS011;9059;49.934;8.650;2023-02-19T04:13:25;2.83;;;1.40;;
17866;SDS011;9059;49.934;8.650;2023-02-19T04:14:31;2.90;;;1.58;;
17866;SDS011;9059;49.934;8.650;2023-02-19T04:15:36;2.08;;;1.30;;
17866;SDS011;9059;49.934;8.650;2023-02-19T04:16:44;3.10;;;1.50;;
17866;SDS011;9059;49.934;8.650;2023-02-19T04:17:49;2.65;;;1.50;;
17866;SDS011;9059;49.934;8.650;2023-02-19T04:18:56;2.67;;;1.85;;
17866;SDS011;9059;49.934;8.650;2023-02-19T04:20:01;2.10;;;1.50;;
17866;SDS011;9059;49.934;8.650;2023-02-19T04:21:05;2.13;;;1.35;;
17866;SDS011;9059;49.934;8.650;2023-02-19T04:22:09;2.20;;;1.50;;
17866;SDS011;9059;49.934;8.650;2023-02-19T04:23:12;3.17;;;1.30;;
17866;SDS011;9059;49.934;8.650;2023-02-19T04:24:18;5.68;;;1.80;;
17866;SDS011;9059;49.934;8.650;2023-02-19T04:25:22;2.33;;;1.50;;
17866;SDS011;9059;49.934;8.650;2023-02-19T04:26:25;3.08;;;1.63;;
17866;SDS011;9059;49.934;8.650;2023-02-19T04:27:30;2.25;;;1.38;;
17866;SDS011;9059;49.934;8.650;2023-02-19T04:28:33;3.25;;;1.60;;
17866;SDS011;9059;49.934;8.650;2023-02-19T04:29:35;2.92;;;1.60;;
17866;SDS011;9059;49.934;8.650;2023-02-19T04:30:39;2.88;;;1.92;;
17866;SDS011;9059;49.934;8.650;2023-02-19T04:31:41;2.55;;;1.67;;
17866;SDS011;9059;49.934;8.650;2023-02-19T04:32:44;3.03;;;1.48;;
17866;SDS011;9059;49.934;8.650;2023-02-19T04:33:48;2.65;;;1.75;;
17866;SDS011;9059;49.934;8.650;2023-02-19T04:34:52;2.40;;;1.67;;
17866;SDS011;9059;49.934;8.650;2023-02-19T04:35:54;5.15;;;1.65;;
17866;SDS011;9059;49.934;8.650;2023-02-19T04:36:57;3.08;;;1.58;;
17866;SDS011;9059;49.934;8.650;2023-02-19T04:38:00;4.47;;;1.83;;
17866;SDS011;9059;49.934;8.650;2023-02-19T04:39:01;4.57;;;1.90;;
17866;SDS011;9059;49.934;8.650;2023-02-19T04:40:04;3.80;;;1.73;;
17866;SDS011;9059;49.934;8.650;2023-02-19T04:41:07;2.20;;;1.30;;
17866;SDS011;9059;49.934;8.650;2023-02-19T04:42:10;2.22;;;1.45;;
17866;SDS011;9059;49.934;8.650;2023-02-19T04:43:13;3.05;;;2.03;;
17866;SDS011;9059;49.934;8.650;2023-02-19T04:44:15;1.92;;;1.10;;
17866;SDS011;9059;49.934;8.650;2023-02-19T04:45:18;2.53;;;1.58;;
17866;SDS011;9059;49.934;8.650;2023-02-19T04:46:19;2.17;;;1.38;;
17866;SDS011;9059;49.934;8.650;2023-02-19T04:47:22;3.40;;;1.77;;
17866;SDS011;9059;49.934;8.650;2023-02-19T04:48:24;2.47;;;1.60;;
17866;SDS011;9059;49.934;8.650;2023-02-19T04:49:27;2.95;;;1.60;;
17866;SDS011;9059;49.934;8.650;2023-02-19T04:50:30;2.83;;;1.30;;
17866;SDS011;9059;49.934;8.650;2023-02-19T04:51:33;2.35;;;1.35;;
17866;SDS011;9059;49.934;8.650;2023-02-19T04:52:34;2.83;;;1.15;;
17866;SDS011;9059;49.934;8.650;2023-02-19T04:53:37;1.30;;;0.90;;
17866;SDS011;9059;49.934;8.650;2023-02-19T04:54:39;2.40;;;1.20;;
17866;SDS011;9059;49.934;8.650;2023-02-19T04:55:42;3.47;;;1.20;;
17866;SDS011;9059;49.934;8.650;2023-02-19T04:56:43;2.05;;;1.38;;
17866;SDS011;9059;49.934;8.650;2023-02-19T04:57:46;2.72;;;1.10;;
17866;SDS011;9059;49.934;8.650;2023-02-19T04:58:48;1.67;;;1.17;;
17866;SDS011;9059;49.934;8.650;2023-02-19T04:59:51;1.60;;;1.20;;
17866;SDS011;9059;49.934;8.650;2023-02-19T05:00:53;2.25;;;1.30;;
17866;SDS011;9059;49.934;8.650;2023-02-19T05:01:55;3.00;;;1.40;;
17866;SDS011;9059;49.934;8.650;2023-02-19T05:02:58;1.40;;;1.08;;
17866;SDS011;9059;49.934;8.650;2023-02-19T05:04:01;2.30;;;1.23;;
17866;SDS011;9059;49.934;8.650;2023-02-19T05:05:05;1.20;;;0.90;;
17866;SDS011;9059;49.934;8.650;2023-02-19T05:06:10;1.75;;;1.20;;
17866;SDS011;9059;49.934;8.650;2023-02-19T05:07:13;4.38;;;1.60;;
17866;SDS011;9059;49.934;8.650;2023-02-19T05:08:16;2.47;;;1.02;;
17866;SDS011;9059;49.934;8.650;2023-02-19T05:09:18;2.47;;;1.30;;
17866;SDS011;9059;49.934;8.650;2023-02-19T05:10:21;4.15;;;1.40;;
17866;SDS011;9059;49.934;8.650;2023-02-19T05:11:22;2.00;;;1.25;;
17866;SDS011;9059;49.934;8.650;2023-02-19T05:12:25;4.10;;;1.30;;
17866;SDS011;9059;49.934;8.650;2023-02-19T05:13:27;3.05;;;1.60;;
17866;SDS011;9059;49.934;8.650;2023-02-19T05:14:30;2.38;;;1.38;;
17866;SDS011;9059;49.934;8.650;2023-02-19T05:15:33;2.63;;;1.33;;
17866;SDS011;9059;49.934;8.650;2023-02-19T05:16:34;2.08;;;1.50;;
17866;SDS011;9059;49.934;8.650;2023-02-19T05:17:37;3.72;;;1.27;;
17866;SDS011;9059;49.934;8.650;2023-02-19T05:18:39;2.63;;;1.27;;
17866;SDS011;9059;49.934;8.650;2023-02-19T05:19:42;1.80;;;1.10;;
17866;SDS011;9059;49.934;8.650;2023-02-19T05:20:44;1.67;;;1.17;;
17866;SDS011;9059;49.934;8.650;2023-02-19T05:21:48;3.67;;;1.25;;
17866;SDS011;9059;49.934;8.650;2023-02-19T05:22:50;2.08;;;1.50;;
17866;SDS011;9059;49.934;8.650;2023-02-19T05:23:53;1.80;;;1.05;;
17866;SDS011;9059;49.934;8.650;2023-02-19T05:24:54;1.60;;;1.40;;
17866;SDS011;9059;49.934;8.650;2023-02-19T05:25:57;3.85;;;1.20;;
17866;SDS011;9059;49.934;8.650;2023-02-19T05:26:59;2.28;;;1.50;;
17866;SDS011;9059;49.934;8.650;2023-02-19T05:28:02;2.28;;;1.20;;
17866;SDS011;9059;49.934;8.650;2023-02-19T05:29:17;2.08;;;1.10;;
17866;SDS011;9059;49.934;8.650;2023-02-19T05:30:20;2.53;;;1.60;;
17866;SDS011;9059;49.934;8.650;2023-02-19T05:31:21;2.28;;;1.10;;
17866;SDS011;9059;49.934;8.650;2023-02-19T05:32:25;2.80;;;1.20;;
17866;SDS011;9059;49.934;8.650;2023-02-19T05:33:26;4.97;;;1.50;;
17866;SDS011;9059;49.934;8.650;2023-02-19T05:34:29;6.00;;;1.48;;
17866;SDS011;9059;49.934;8.650;2023-02-19T05:35:31;2.45;;;1.10;;
17866;SDS011;9059;49.934;8.650;2023-02-19T05:36:34;1.60;;;1.10;;
17866;SDS011;9059;49.934;8.650;2023-02-19T05:37:38;2.55;;;1.20;;
17866;SDS011;9059;49.934;8.650;2023-02-19T05:38:41;2.15;;;1.20;;
17866;SDS011;9059;49.934;8.650;2023-02-19T05:39:43;2.13;;;1.20;;
17866;SDS011;9059;49.934;8.650;2023-02-19T05:40:46;1.80;;;1.30;;
17866;SDS011;9059;49.934;8.650;2023-02-19T05:41:48;2.13;;;1.17;;
17866;SDS011;9059;49.934;8.650;2023-02-19T05:42:51;2.35;;;1.15;;
17866;SDS011;9059;49.934;8.650;2023-02-19T05:43:52;1.70;;;1.20;;
17866;SDS011;9059;49.934;8.650;2023-02-19T05:44:55;1.83;;;1.20;;
17866;SDS011;9059;49.934;8.650;2023-02-19T05:45:57;1.80;;;1.10;;
17866;SDS011;9059;49.934;8.650;2023-02-19T05:47:00;2.05;;;1.30;;
17866;SDS011;9059;49.934;8.650;2023-02-19T05:48:03;2.17;;;1.10;;
17866;SDS011;9059;49.934;8.650;2023-02-19T05:49:05;2.20;;;1.20;;
17866;SDS011;9059;49.934;8.650;2023-02-19T05:50:08;1.70;;;1.17;;
17866;SDS011;9059;49.934;8.650;2023-02-19T05:51:11;2.60;;;1.13;;
17866;SDS011;9059;49.934;8.650;2023-02-19T05:52:14;1.98;;;1.20;;
17866;SDS011;9059;49.934;8.650;2023-02-19T05:53:17;9.80;;;1.55;;
17866;SDS011;9059;49.934;8.650;2023-02-19T05:54:20;1.75;;;1.20;;
17866;SDS011;9059;49.934;8.650;2023-02-19T05:55:21;3.28;;;1.35;;
17866;SDS011;9059;49.934;8.650;2023-02-19T05:56:31;1.48;;;1.10;;
17866;SDS011;9059;49.934;8.650;2023-02-19T05:57:38;1.95;;;1.13;;
17866;SDS011;9059;49.934;8.650;2023-02-19T05:58:43;5.97;;;1.33;;
17866;SDS011;9059;49.934;8.650;2023-02-19T05:59:45;1.58;;;1.23;;
17866;SDS011;9059;49.934;8.650;2023-02-19T06:00:48;1.90;;;1.00;;
17866;SDS011;9059;49.934;8.650;2023-02-19T06:01:50;2.42;;;1.15;;
17866;SDS011;9059;49.934;8.650;2023-02-19T06:02:54;4.63;;;1.38;;
17866;SDS011;9059;49.934;8.650;2023-02-19T06:03:56;2.00;;;1.25;;
17866;SDS011;9059;49.934;8.650;2023-02-19T06:04:59;1.92;;;1.13;;
17866;SDS011;9059;49.934;8.650;2023-02-19T06:06:02;1.58;;;1.00;;
17866;SDS011;9059;49.934;8.650;2023-02-19T06:07:04;4.65;;;1.20;;
17866;SDS011;9059;49.934;8.650;2023-02-19T06:08:06;2.35;;;1.48;;
17866;SDS011;9059;49.934;8.650;2023-02-19T06:09:10;1.65;;;1.10;;
17866;SDS011;9059;49.934;8.650;2023-02-19T06:10:12;3.15;;;1.10;;
17866;SDS011;9059;49.934;8.650;2023-02-19T06:11:15;2.60;;;1.10;;
17866;SDS011;9059;49.934;8.650;2023-02-19T06:12:17;2.95;;;1.20;;
17866;SDS011;9059;49.934;8.650;2023-02-19T06:13:19;1.77;;;1.13;;
17866;SDS011;9059;49.934;8.650;2023-02-19T06:14:21;1.75;;;1.00;;
17866;SDS011;9059;49.934;8.650;2023-02-19T06:15:24;1.20;;;1.00;;
17866;SDS011;9059;49.934;8.650;2023-02-19T06:16:26;1.85;;;1.13;;
17866;SDS011;9059;49.934;8.650;2023-02-19T06:17:29;1.30;;;1.00;;
17866;SDS011;9059;49.934;8.650;2023-02-19T06:18:30;1.63;;;1.20;;
17866;SDS011;9059;49.934;8.650;2023-02-19T06:19:33;1.75;;;0.93;;
17866;SDS011;9059;49.934;8.650;2023-02-19T06:20:35;1.90;;;1.20;;
17866;SDS011;9059;49.934;8.650;2023-02-19T06:21:38;1.50;;;0.80;;
17866;SDS011;9059;49.934;8.650;2023-02-19T06:22:39;0.98;;;0.63;;
17866;SDS011;9059;49.934;8.650;2023-02-19T06:23:42;1.05;;;0.73;;
17866;SDS011;9059;49.934;8.650;2023-02-19T06:24:46;1.38;;;0.60;;
17866;SDS011;9059;49.934;8.650;2023-02-19T06:25:49;1.10;;;0.80;;
17866;SDS011;9059;49.934;8.650;2023-02-19T06:26:50;0.93;;;0.70;;
17866;SDS011;9059;49.934;8.650;2023-02-19T06:27:53;0.75;;;0.68;;
17866;SDS011;9059;49.934;8.650;2023-02-19T06:28:55;2.22;;;0.80;;
17866;SDS011;9059;49.934;8.650;2023-02-19T06:29:58;0.55;;;0.45;;
17866;SDS011;9059;49.934;8.650;2023-02-19T06:30:59;0.90;;;0.60;;
17866;SDS011;9059;49.934;8.650;2023-02-19T06:32:02;0.47;;;0.43;;
17866;SDS011;9059;49.934;8.650;2023-02-19T06:33:05;1.65;;;0.80;;
17866;SDS011;9059;49.934;8.650;2023-02-19T06:34:07;2.65;;;0.57;;
17866;SDS011;9059;49.934;8.650;2023-02-19T06:35:09;1.45;;;0.70;;
17866;SDS011;9059;49.934;8.650;2023-02-19T06:36:13;2.30;;;0.50;;
17866;SDS011;9059;49.934;8.650;2023-02-19T06:37:15;1.90;;;0.70;;